createdAt,value
2019-01-18T00:00:51.511Z,3.60
2019-01-18T00:03:17.514Z,3.60
2019-01-18T00:05:44.234Z,3.50
2019-01-18T00:08:10.241Z,3.50
2019-01-18T00:10:36.230Z,3.30
2019-01-18T00:13:02.194Z,3.20
2019-01-18T00:15:28.236Z,3.30
2019-01-18T00:17:54.214Z,3.40
2019-01-18T00:20:20.181Z,3.30
2019-01-18T00:22:46.153Z,3.40
2019-01-18T00:25:12.133Z,3.40
2019-01-18T00:27:38.226Z,3.50
2019-01-18T00:30:08.237Z,3.60
2019-01-18T00:32:34.239Z,3.70
2019-01-18T00:35:00.237Z,3.80
2019-01-18T00:37:26.309Z,3.90
2019-01-18T00:39:52.303Z,3.90
2019-01-18T00:42:18.314Z,3.90
2019-01-18T00:44:44.352Z,3.90
2019-01-18T00:47:10.393Z,3.90
2019-01-18T00:49:36.384Z,3.90
2019-01-18T00:52:03.131Z,4.00
2019-01-18T00:54:29.133Z,4.00
2019-01-18T00:56:55.134Z,4.00
2019-01-18T00:59:21.156Z,4.00
2019-01-18T01:01:47.133Z,4.10
2019-01-18T01:04:13.133Z,4.20
2019-01-18T01:06:39.866Z,4.20
2019-01-18T01:09:06.594Z,4.20
2019-01-18T01:11:32.581Z,4.20
2019-01-18T01:13:58.625Z,4.10
2019-01-18T01:16:24.661Z,4.10
2019-01-18T01:18:50.668Z,4.00
2019-01-18T01:21:16.645Z,4.00
2019-01-18T01:23:42.631Z,4.00
2019-01-18T01:26:08.631Z,4.00
2019-01-18T01:28:34.625Z,3.90
2019-01-18T01:31:00.654Z,3.90
2019-01-18T01:33:26.720Z,4.00
2019-01-18T01:35:52.728Z,4.00
2019-01-18T01:38:18.727Z,4.10
2019-01-18T01:40:44.744Z,4.20
2019-01-18T01:43:10.730Z,4.20
2019-01-18T01:45:36.722Z,4.20
2019-01-18T01:48:02.713Z,4.30
2019-01-18T01:50:28.754Z,4.30
2019-01-18T01:52:54.735Z,4.30
2019-01-18T01:55:20.737Z,4.30
2019-01-18T01:57:46.743Z,4.30
2019-01-18T02:00:14.654Z,4.30
2019-01-18T02:02:40.639Z,4.20
2019-01-18T02:05:16.622Z,4.10
2019-01-18T02:07:42.602Z,4.20
2019-01-18T02:10:08.594Z,4.10
2019-01-18T02:12:35.328Z,4.20
2019-01-18T02:15:02.090Z,4.20
2019-01-18T02:17:28.452Z,4.20
2019-01-18T02:19:54.447Z,4.10
2019-01-18T02:22:20.429Z,4.10
2019-01-18T02:24:46.434Z,4.00
2019-01-18T02:27:12.429Z,4.00
2019-01-18T02:29:38.418Z,3.90
2019-01-18T02:32:05.148Z,3.90
2019-01-18T02:34:31.154Z,3.90
2019-01-18T02:36:57.161Z,4.00
2019-01-18T02:39:23.160Z,4.00
2019-01-18T02:41:49.156Z,3.90
2019-01-18T02:44:15.884Z,3.80
2019-01-18T02:46:41.881Z,3.80
2019-01-18T02:49:07.889Z,3.90
2019-01-18T02:51:33.906Z,3.80
2019-01-18T02:53:59.901Z,3.80
2019-01-18T02:56:26.621Z,3.80
2019-01-18T02:58:53.350Z,3.90
2019-01-18T03:01:19.338Z,3.80
2019-01-18T03:03:45.327Z,3.90
2019-01-18T03:06:12.098Z,4.10
2019-01-18T03:08:38.087Z,4.00
2019-01-18T03:11:04.822Z,4.10
2019-01-18T03:13:31.576Z,4.10
2019-01-18T03:15:58.304Z,4.00
2019-01-18T03:18:24.322Z,4.00
2019-01-18T03:20:51.070Z,4.20
2019-01-18T03:23:17.056Z,4.10
2019-01-18T03:25:43.038Z,4.20
2019-01-18T03:28:09.092Z,4.10
2019-01-18T03:30:35.087Z,4.20
2019-01-18T03:33:01.154Z,4.20
2019-01-18T03:35:27.180Z,4.10
2019-01-18T03:37:53.202Z,4.10
2019-01-18T03:40:19.184Z,4.20
2019-01-18T03:42:45.182Z,4.20
2019-01-18T03:45:11.180Z,4.10
2019-01-18T03:47:37.246Z,4.10
2019-01-18T03:50:03.272Z,4.20
2019-01-18T03:52:29.295Z,4.20
2019-01-18T03:54:55.326Z,4.20
2019-01-18T03:57:21.331Z,4.10
2019-01-18T03:59:48.060Z,4.30
2019-01-18T04:02:14.831Z,4.30
2019-01-18T04:04:40.976Z,4.30
2019-01-18T04:07:06.990Z,4.30
2019-01-18T04:09:32.980Z,4.30
2019-01-18T04:11:59.742Z,4.30
2019-01-18T04:14:26.003Z,4.30
2019-01-18T04:16:51.794Z,4.20
2019-01-18T04:19:17.815Z,4.20
2019-01-18T04:21:43.835Z,4.10
2019-01-18T04:24:09.855Z,4.10
2019-01-18T04:26:35.870Z,4.10
2019-01-18T04:29:02.659Z,4.00
2019-01-18T04:31:28.654Z,4.00
2019-01-18T04:33:54.639Z,4.00
2019-01-18T04:36:20.648Z,3.90
2019-01-18T04:38:46.644Z,3.80
2019-01-18T04:41:12.655Z,3.80
2019-01-18T04:43:38.660Z,3.80
2019-01-18T04:46:04.660Z,3.70
2019-01-18T04:48:30.663Z,3.60
2019-01-18T04:50:56.670Z,3.50
2019-01-18T04:53:22.673Z,3.50
2019-01-18T04:55:48.684Z,3.60
2019-01-18T04:58:14.675Z,3.60
2019-01-18T05:00:41.636Z,3.50
2019-01-18T05:03:06.703Z,3.60
2019-01-18T05:05:32.712Z,3.60
2019-01-18T05:07:58.739Z,3.30
2019-01-18T05:10:24.743Z,3.40
2019-01-18T05:12:50.840Z,3.30
2019-01-18T05:15:18.679Z,3.30
2019-01-18T05:17:44.753Z,3.20
2019-01-18T05:20:10.743Z,3.10
2019-01-18T05:22:37.492Z,2.90
2019-01-18T05:25:04.225Z,3.00
2019-01-18T05:27:29.531Z,3.00
2019-01-18T05:29:56.325Z,3.00
2019-01-18T05:32:22.318Z,3.00
2019-01-18T05:34:48.343Z,2.90
2019-01-18T05:37:14.364Z,2.90
2019-01-18T05:39:40.395Z,2.90
2019-01-18T05:42:06.406Z,2.80
2019-01-18T05:44:32.398Z,2.90
2019-01-18T05:46:58.399Z,2.80
2019-01-18T05:49:24.395Z,2.80
2019-01-18T05:51:50.423Z,2.80
2019-01-18T05:54:16.447Z,2.80
2019-01-18T05:56:42.451Z,2.80
2019-01-18T05:59:08.454Z,2.80
2019-01-18T06:01:35.217Z,3.00
2019-01-18T06:04:01.196Z,2.90
2019-01-18T06:06:27.183Z,3.00
2019-01-18T06:08:53.217Z,3.10
2019-01-18T06:11:19.199Z,3.10
2019-01-18T06:13:45.191Z,3.20
2019-01-18T06:16:11.186Z,3.20
2019-01-18T06:18:37.183Z,3.20
2019-01-18T06:21:03.186Z,3.20
2019-01-18T06:23:29.190Z,3.30
2019-01-18T06:25:55.197Z,3.40
2019-01-18T06:28:21.224Z,3.40
2019-01-18T06:30:47.225Z,3.50
2019-01-18T06:33:13.247Z,3.50
2019-01-18T06:35:39.239Z,3.50
2019-01-18T06:38:05.239Z,3.40
2019-01-18T06:40:31.997Z,3.50
2019-01-18T06:42:58.020Z,3.50
2019-01-18T06:45:24.051Z,3.50
2019-01-18T06:47:50.067Z,3.50
2019-01-18T06:50:16.071Z,3.50
2019-01-18T06:52:42.080Z,3.50
2019-01-18T06:55:08.086Z,3.60
2019-01-18T06:57:34.087Z,3.60
2019-01-18T07:00:00.257Z,3.60
2019-01-18T07:02:26.139Z,3.60
2019-01-18T07:04:52.163Z,3.70
2019-01-18T07:07:18.171Z,3.60
2019-01-18T07:09:44.183Z,3.70
2019-01-18T07:12:10.207Z,3.70
2019-01-18T07:14:36.243Z,3.70
2019-01-18T07:17:02.271Z,3.70
2019-01-18T07:19:29.022Z,3.60
2019-01-18T07:21:55.770Z,3.60
2019-01-18T07:24:21.766Z,3.60
2019-01-18T07:26:47.759Z,3.60
2019-01-18T07:29:13.762Z,3.60
2019-01-18T07:31:39.839Z,3.60
2019-01-18T07:34:05.831Z,3.60
2019-01-18T07:36:31.867Z,3.60
2019-01-18T07:39:00.599Z,3.50
2019-01-18T07:41:23.880Z,3.40
2019-01-18T07:43:49.871Z,3.40
2019-01-18T07:46:15.863Z,3.40
2019-01-18T07:48:41.939Z,3.40
2019-01-18T07:51:07.939Z,3.40
2019-01-18T07:53:33.954Z,3.40
2019-01-18T07:56:00.708Z,3.20
2019-01-18T07:58:27.445Z,3.10
2019-01-18T08:00:54.183Z,3.10
2019-01-18T08:03:30.175Z,3.10
2019-01-18T08:05:56.223Z,3.10
2019-01-18T08:08:22.310Z,3.10
2019-01-18T08:10:48.291Z,3.20
2019-01-18T08:13:14.309Z,3.70
2019-01-18T08:15:40.330Z,4.20
2019-01-18T08:18:06.394Z,4.60
2019-01-18T08:20:32.375Z,5.10
2019-01-18T08:22:58.384Z,5.80
2019-01-18T08:25:24.411Z,7.00
2019-01-18T08:27:50.409Z,8.00
2019-01-18T08:30:17.307Z,8.90
2019-01-18T08:32:43.326Z,10.00
2019-01-18T08:35:09.318Z,11.00
2019-01-18T08:37:35.335Z,12.00
2019-01-18T08:40:01.331Z,12.80
2019-01-18T08:42:28.080Z,13.00
2019-01-18T08:44:54.103Z,13.00
2019-01-18T08:47:20.835Z,12.50
2019-01-18T08:49:47.583Z,12.10
2019-01-18T08:52:14.379Z,11.80
2019-01-18T08:54:40.404Z,11.70
2019-01-18T08:57:06.419Z,11.20
2019-01-18T08:59:32.428Z,11.00
2019-01-18T09:01:58.454Z,10.80
2019-01-18T09:04:24.444Z,10.00
2019-01-18T09:06:51.191Z,8.30
2019-01-18T09:09:17.204Z,8.30
2019-01-18T09:11:43.979Z,7.70
2019-01-18T09:14:10.003Z,7.70
2019-01-18T09:16:36.011Z,7.90
2019-01-18T09:19:02.037Z,8.10
2019-01-18T09:21:28.055Z,8.60
2019-01-18T09:23:54.048Z,9.20
2019-01-18T09:26:20.037Z,9.60
2019-01-18T09:28:46.080Z,8.80
2019-01-18T09:31:12.092Z,8.10
2019-01-18T09:33:38.106Z,7.50
2019-01-18T09:36:04.125Z,7.20
2019-01-18T09:38:30.130Z,6.90
2019-01-18T09:40:56.136Z,7.00
2019-01-18T09:43:22.218Z,7.40
2019-01-18T09:45:48.198Z,7.60
2019-01-18T09:48:14.232Z,8.00
2019-01-18T09:50:40.191Z,8.20
2019-01-18T09:53:06.174Z,8.30
2019-01-18T09:55:32.170Z,8.50
2019-01-18T09:57:58.931Z,8.30
2019-01-18T10:00:25.876Z,8.30
2019-01-18T10:02:51.875Z,8.20
2019-01-18T10:05:18.666Z,7.40
2019-01-18T10:07:44.679Z,7.40
2019-01-18T10:10:12.580Z,6.90
2019-01-18T10:12:38.620Z,6.60
2019-01-18T10:15:06.501Z,6.90
2019-01-18T10:17:32.528Z,7.30
2019-01-18T10:19:58.539Z,7.90
2019-01-18T10:22:24.569Z,7.80
2019-01-18T10:24:51.303Z,7.30
2019-01-18T10:27:17.297Z,7.30
2019-01-18T10:29:43.315Z,7.70
2019-01-18T10:32:09.299Z,7.70
2019-01-18T10:34:35.334Z,7.90
2019-01-18T10:37:01.351Z,7.70
2019-01-18T10:39:27.342Z,8.00
2019-01-18T10:41:53.347Z,8.30
2019-01-18T10:44:19.363Z,8.40
2019-01-18T10:46:45.363Z,7.90
2019-01-18T10:49:11.371Z,8.00
2019-01-18T10:51:37.399Z,7.70
2019-01-18T10:54:03.430Z,6.80
2019-01-18T10:56:29.455Z,7.00
2019-01-18T10:58:55.455Z,7.10
2019-01-18T11:01:21.467Z,6.90
2019-01-18T11:03:47.492Z,7.30
2019-01-18T11:06:13.510Z,6.50
2019-01-18T11:08:40.276Z,6.80
2019-01-18T11:11:06.297Z,6.80
2019-01-18T11:13:32.340Z,6.50
2019-01-18T11:15:58.365Z,6.20
2019-01-18T11:18:24.401Z,5.70
2019-01-18T11:20:51.149Z,5.60
2019-01-18T11:23:16.491Z,5.70
2019-01-18T11:25:42.478Z,6.00
2019-01-18T11:28:08.483Z,5.50
2019-01-18T11:30:34.500Z,5.50
2019-01-18T11:33:00.511Z,5.60
2019-01-18T11:35:26.508Z,5.80
2019-01-18T11:37:53.239Z,6.00
2019-01-18T11:40:20.043Z,5.50
2019-01-18T11:42:46.148Z,5.60
2019-01-18T11:45:12.196Z,5.70
2019-01-18T11:47:38.201Z,5.70
2019-01-18T11:50:05.027Z,5.20
2019-01-18T11:52:31.002Z,4.90
2019-01-18T11:54:57.034Z,4.70
2019-01-18T11:57:23.054Z,4.90
2019-01-18T11:59:50.543Z,4.90
2019-01-18T12:02:18.577Z,5.00
2019-01-18T12:04:41.136Z,4.70
2019-01-18T12:07:07.125Z,4.80
2019-01-18T12:09:33.103Z,4.70
2019-01-18T12:11:59.128Z,4.80
2019-01-18T12:14:25.199Z,4.90
2019-01-18T12:16:51.343Z,4.90
2019-01-18T12:19:17.375Z,4.70
2019-01-18T12:21:43.379Z,5.00
2019-01-18T12:24:09.434Z,4.90
2019-01-18T12:26:35.446Z,5.00
2019-01-18T12:29:01.428Z,5.10
2019-01-18T12:31:27.421Z,5.10
2019-01-18T12:33:53.433Z,5.30
2019-01-18T12:36:19.435Z,5.40
2019-01-18T12:38:45.421Z,5.50
2019-01-18T12:41:11.423Z,5.60
2019-01-18T12:43:37.420Z,5.60
2019-01-18T12:46:03.402Z,5.60
2019-01-18T12:48:29.437Z,5.70
2019-01-18T12:50:55.427Z,5.80
2019-01-18T12:53:21.410Z,5.50
2019-01-18T12:55:47.527Z,5.80
2019-01-18T12:58:13.589Z,5.40
2019-01-18T13:00:39.832Z,5.90
2019-01-18T13:03:05.996Z,5.70
2019-01-18T13:05:36.061Z,5.80
2019-01-18T13:08:02.122Z,5.70
2019-01-18T13:10:28.871Z,5.90
2019-01-18T13:12:54.885Z,6.10
2019-01-18T13:15:23.773Z,6.00
2019-01-18T13:17:49.827Z,6.30
2019-01-18T13:20:15.871Z,6.50
2019-01-18T13:22:41.863Z,6.50
2019-01-18T13:25:07.887Z,6.80
2019-01-18T13:27:33.904Z,6.90
2019-01-18T13:29:59.939Z,7.20
2019-01-18T13:32:25.942Z,7.20
2019-01-18T13:34:51.947Z,7.30
2019-01-18T13:37:17.941Z,7.40
2019-01-18T13:39:44.705Z,7.20
2019-01-18T13:42:10.688Z,7.20
2019-01-18T13:44:36.683Z,7.20
2019-01-18T13:47:02.711Z,7.00
2019-01-18T13:49:28.724Z,7.00
2019-01-18T13:51:54.759Z,6.60
2019-01-18T13:54:20.899Z,6.70
2019-01-18T13:56:46.923Z,6.60
2019-01-18T13:59:13.084Z,6.60
2019-01-18T14:01:39.144Z,6.50
2019-01-18T14:04:05.145Z,6.50
2019-01-18T14:06:31.149Z,6.40
2019-01-18T14:08:57.159Z,6.50
2019-01-18T14:11:23.231Z,6.50
2019-01-18T14:13:49.255Z,6.40
2019-01-18T14:16:15.311Z,6.40
2019-01-18T14:18:41.303Z,6.40
2019-01-18T14:21:07.303Z,6.30
2019-01-18T14:23:33.325Z,6.30
2019-01-18T14:25:59.305Z,6.20
2019-01-18T14:28:25.297Z,6.10
2019-01-18T14:30:51.314Z,6.00
2019-01-18T14:33:17.323Z,5.90
2019-01-18T14:35:43.319Z,5.90
2019-01-18T14:38:09.335Z,5.90
2019-01-18T14:40:35.336Z,6.00
2019-01-18T14:43:01.327Z,6.00
2019-01-18T14:45:30.187Z,6.00
2019-01-18T14:47:56.184Z,5.80
2019-01-18T14:50:22.195Z,5.70
2019-01-18T14:52:48.230Z,5.70
2019-01-18T14:55:14.254Z,5.70
2019-01-18T14:57:40.246Z,5.60
2019-01-18T15:00:06.502Z,5.60
2019-01-18T15:02:32.617Z,5.60
2019-01-18T15:04:58.627Z,5.50
2019-01-18T15:07:24.663Z,5.40
2019-01-18T15:09:50.787Z,5.30
2019-01-18T15:12:16.819Z,5.20
2019-01-18T15:14:42.933Z,5.10
2019-01-18T15:17:08.988Z,5.10
2019-01-18T15:19:35.004Z,5.10
2019-01-18T15:22:01.063Z,5.00
2019-01-18T15:24:27.104Z,4.90
2019-01-18T15:26:53.159Z,4.90
2019-01-18T15:29:19.170Z,4.80
2019-01-18T15:31:45.189Z,4.70
2019-01-18T15:34:11.267Z,4.80
2019-01-18T15:36:37.284Z,4.70
2019-01-18T15:39:03.394Z,4.70
2019-01-18T15:41:29.430Z,4.70
2019-01-18T15:43:55.464Z,4.60
2019-01-18T15:46:21.495Z,4.50
2019-01-18T15:48:47.500Z,4.50
2019-01-18T15:51:13.522Z,4.40
2019-01-18T15:53:39.567Z,4.30
2019-01-18T15:56:05.606Z,4.40
2019-01-18T15:58:31.623Z,4.30
2019-01-18T16:00:57.666Z,4.20
2019-01-18T16:03:23.690Z,4.10
2019-01-18T16:05:49.834Z,4.00
2019-01-18T16:08:15.897Z,4.00
2019-01-18T16:10:41.927Z,3.90
2019-01-18T16:13:07.987Z,3.70
2019-01-18T16:15:49.087Z,3.60
2019-01-18T16:18:15.078Z,3.60
2019-01-18T16:20:41.161Z,3.50
2019-01-18T16:23:07.179Z,3.50
2019-01-18T16:25:33.271Z,3.40
2019-01-18T16:27:59.726Z,3.40
2019-01-18T16:30:26.161Z,3.40
2019-01-18T16:32:52.969Z,3.30
2019-01-18T16:35:19.000Z,3.20
2019-01-18T16:37:45.042Z,3.20
2019-01-18T16:40:12.084Z,3.20
2019-01-18T16:42:38.149Z,3.20
2019-01-18T16:45:04.151Z,3.20
2019-01-18T16:47:30.175Z,3.20
2019-01-18T16:49:56.191Z,3.20
2019-01-18T16:52:22.219Z,3.10
2019-01-18T16:54:48.250Z,3.00
2019-01-18T16:57:14.280Z,3.00
2019-01-18T16:59:40.348Z,3.00
2019-01-18T17:02:06.371Z,2.90
2019-01-18T17:04:33.126Z,2.80
2019-01-18T17:06:59.256Z,2.80
2019-01-18T17:09:25.296Z,2.80
2019-01-18T17:11:51.323Z,2.90
2019-01-18T17:14:17.356Z,2.80
2019-01-18T17:16:45.049Z,2.60
2019-01-18T17:19:10.184Z,2.70
2019-01-18T17:21:36.304Z,2.70
2019-01-18T17:24:02.344Z,2.70
2019-01-18T17:26:28.462Z,2.70
2019-01-18T17:28:54.472Z,2.60
2019-01-18T17:31:21.226Z,2.50
2019-01-18T17:33:47.698Z,2.50
2019-01-18T17:36:16.718Z,2.50
2019-01-18T17:38:57.661Z,2.50
2019-01-18T17:41:30.667Z,2.50
2019-01-18T17:44:12.570Z,2.60
2019-01-18T17:46:41.438Z,2.50
2019-01-18T17:49:07.476Z,2.50
2019-01-18T17:51:38.429Z,2.50
2019-01-18T17:54:04.416Z,2.60
2019-01-18T17:56:44.278Z,2.60
2019-01-18T17:59:41.109Z,2.70
2019-01-18T18:02:10.093Z,2.50
2019-01-18T18:04:42.058Z,2.40
2019-01-18T18:07:17.986Z,2.40
2019-01-18T18:09:44.738Z,2.60
2019-01-18T18:12:17.978Z,2.60
2019-01-18T18:14:46.895Z,2.60
2019-01-18T18:17:29.725Z,2.60
2019-01-18T18:20:03.671Z,2.60
2019-01-18T18:22:41.696Z,2.60
2019-01-18T18:25:29.686Z,2.70
2019-01-18T18:28:00.404Z,2.60
2019-01-18T18:30:29.090Z,2.60
2019-01-18T18:33:13.592Z,2.60
2019-01-18T18:35:56.503Z,2.60
2019-01-18T18:38:25.472Z,2.50
2019-01-18T18:40:58.419Z,2.50
2019-01-18T18:43:26.359Z,2.50
2019-01-18T18:45:53.406Z,2.50
2019-01-18T18:48:33.364Z,2.50
2019-01-18T18:51:18.245Z,2.50
2019-01-18T18:54:00.183Z,2.30
2019-01-18T18:56:41.882Z,1.80
2019-01-18T18:59:30.833Z,1.60
2019-01-18T19:02:18.804Z,1.60
2019-01-18T19:05:02.854Z,1.70
2019-01-18T19:07:46.825Z,1.50
2019-01-18T19:10:22.780Z,1.30
2019-01-18T19:12:54.651Z,1.40
2019-01-18T19:15:33.551Z,1.30
2019-01-18T19:18:20.308Z,1.10
2019-01-18T19:21:09.355Z,1.20
2019-01-18T19:24:08.271Z,1.30
2019-01-18T19:26:39.098Z,1.30
2019-01-18T19:29:24.920Z,1.20
2019-01-18T19:32:14.591Z,1.10
2019-01-18T19:34:45.541Z,1.00
2019-01-18T19:37:32.407Z,0.90
2019-01-18T19:39:58.402Z,0.80
2019-01-18T19:42:40.715Z,0.90
2019-01-18T19:45:11.555Z,1.00
2019-01-18T19:47:57.569Z,0.70
2019-01-18T19:50:30.488Z,0.70
2019-01-18T19:53:01.335Z,0.90
2019-01-18T19:55:31.234Z,0.80
2019-01-18T20:14:56.305Z,0.90
2019-01-18T20:17:25.251Z,1.00
2019-01-18T20:19:58.290Z,0.90
2019-01-18T20:22:37.331Z,0.90
2019-01-18T20:25:29.187Z,0.60
2019-01-18T20:27:57.018Z,0.50
2019-01-18T20:30:32.491Z,0.60
2019-01-18T20:36:04.391Z,0.50
2019-01-18T20:38:38.646Z,0.50
2019-01-18T20:41:15.767Z,0.60
2019-01-18T20:43:51.785Z,0.60
2019-01-18T20:46:41.361Z,0.80
2019-01-18T20:49:11.908Z,0.90
2019-01-18T20:51:45.258Z,0.70
2019-01-18T20:54:39.183Z,0.60
2019-01-18T20:57:06.030Z,0.50
2019-01-18T20:59:42.961Z,0.40
2019-01-18T21:02:24.841Z,0.70
2019-01-18T21:04:53.614Z,0.50
2019-01-18T21:07:24.595Z,0.50
2019-01-18T21:10:07.518Z,0.50
2019-01-18T21:12:54.523Z,0.40
2019-01-18T21:15:31.623Z,0.40
2019-01-18T21:17:58.584Z,0.10
2019-01-18T21:20:42.559Z,0.10
2019-01-18T21:23:30.463Z,0.10
2019-01-18T21:25:59.435Z,0.00
2019-01-18T21:28:50.471Z,-0.20
2019-01-18T21:31:21.451Z,-0.10
2019-01-18T21:37:29.249Z,0.10
2019-01-18T21:39:55.273Z,-0.10
2019-01-18T21:42:24.218Z,-0.20
2019-01-18T21:45:10.112Z,-0.20
2019-01-18T21:47:37.050Z,-0.10
2019-01-18T21:50:19.219Z,-0.20
2019-01-18T21:52:47.223Z,-0.20
2019-01-18T21:55:30.135Z,-0.10
2019-01-18T21:58:12.986Z,-0.20
2019-01-18T22:00:39.043Z,-0.20
2019-01-18T22:03:05.974Z,-0.20
2019-01-18T22:06:08.884Z,-0.20
2019-01-18T22:08:35.763Z,-0.30
2019-01-18T22:11:03.643Z,-0.20
2019-01-18T22:13:30.483Z,-0.30
2019-01-18T22:16:00.489Z,-0.40
2019-01-18T22:18:38.500Z,-0.40
2019-01-18T22:21:07.420Z,-0.30
2019-01-18T22:23:34.254Z,-0.50
2019-01-18T22:26:21.139Z,-0.50
2019-01-18T22:28:48.087Z,-0.40
2019-01-18T22:31:22.317Z,-0.40
2019-01-18T22:33:48.338Z,-0.50
2019-01-18T22:36:29.293Z,-0.40
2019-01-18T22:39:01.024Z,-0.20
2019-01-18T22:41:36.079Z,-0.10
2019-01-18T22:44:08.811Z,-0.20
2019-01-18T22:46:43.039Z,-0.20
2019-01-18T22:49:09.098Z,-0.30
2019-01-18T22:51:47.130Z,-0.40
2019-01-18T22:54:27.182Z,-0.50
2019-01-18T22:57:02.219Z,-0.60
2019-01-18T22:59:46.974Z,-0.70
2019-01-18T23:02:38.190Z,-0.80
2019-01-18T23:05:21.005Z,-0.70
2019-01-18T23:07:50.887Z,-0.80
2019-01-18T23:10:24.147Z,-0.70
2019-01-18T23:12:50.148Z,-0.70
2019-01-18T23:15:28.657Z,-0.70
2019-01-18T23:17:59.584Z,-0.70
2019-01-18T23:20:52.052Z,-0.80
2019-01-18T23:26:23.128Z,-0.70
2019-01-18T23:29:08.041Z,-0.60
2019-01-18T23:31:59.314Z,-0.60
2019-01-18T23:34:27.305Z,-0.50
2019-01-18T23:36:57.188Z,-0.40
2019-01-18T23:39:44.335Z,-0.40
2019-01-18T23:42:13.202Z,-0.40
2019-01-18T23:44:47.243Z,-0.30
2019-01-18T23:47:15.346Z,-0.20
2019-01-18T23:49:46.249Z,0.00
2019-01-18T23:52:35.188Z,0.10
2019-01-18T23:55:07.181Z,0.30
